Time;durP1;ratioP1;P1;durP2;ratioP2;P2;SDS_P1;SDS_P2;PMS_P1;PMS_P2;Temp;Humidity;BMP_temperature;BMP_pressure;BME280_temperature;BME280_humidity;BME280_pressure;Samples;Min_cycle;Max_cycle;Signal;HPM_P1;HPM_P2
2022/08/19 00:01:27;;;;;;;14.00;4.93;;;16.20;99.90;;;;;;4983714;28;277486;-77
2022/08/19 00:03:53;;;;;;;9.43;4.32;;;16.20;99.90;;;;;;4979692;28;214541;-76
2022/08/19 00:06:19;;;;;;;10.25;4.78;;;16.20;99.90;;;;;;5024424;28;222776;-76
2022/08/19 00:08:45;;;;;;;9.35;4.78;;;16.10;99.90;;;;;;4998627;28;212944;-77
2022/08/19 00:11:12;;;;;;;11.63;5.20;;;16.10;99.90;;;;;;5001835;28;253311;-77
2022/08/19 00:13:38;;;;;;;10.07;5.00;;;16.10;99.90;;;;;;4976812;28;213443;-77
2022/08/19 00:16:06;;;;;;;10.35;5.15;;;16.00;99.90;;;;;;4985416;28;266686;-77
2022/08/19 00:18:33;;;;;;;10.73;6.05;;;16.00;99.90;;;;;;4953468;28;202234;-77
2022/08/19 00:20:59;;;;;;;10.45;5.13;;;16.00;99.90;;;;;;4992723;28;255069;-76
2022/08/19 00:23:27;;;;;;;12.27;5.25;;;16.00;99.90;;;;;;4972068;28;94698;-77
2022/08/19 00:25:53;;;;;;;10.07;4.80;;;16.00;99.90;;;;;;5020965;28;20380;-77
2022/08/19 00:28:20;;;;;;;13.20;4.70;;;15.90;99.90;;;;;;4962592;28;214877;-76
2022/08/19 00:30:46;;;;;;;14.00;5.55;;;15.90;99.90;;;;;;5025765;28;20053;-76
2022/08/19 00:33:13;;;;;;;11.35;5.03;;;15.80;99.90;;;;;;4949038;28;208363;-76
2022/08/19 00:35:39;;;;;;;12.13;4.95;;;15.80;99.90;;;;;;5015820;28;20073;-76
2022/08/19 00:38:06;;;;;;;9.35;4.80;;;15.80;99.90;;;;;;4967963;28;205961;-77
2022/08/19 00:40:32;;;;;;;13.02;4.95;;;15.80;99.90;;;;;;5015940;28;20049;-77
2022/08/19 00:42:59;;;;;;;10.40;4.80;;;15.80;99.90;;;;;;4962633;28;159567;-77
2022/08/19 00:45:30;;;;;;;9.40;4.70;;;15.80;99.90;;;;;;4989050;28;20053;-77
2022/08/19 00:47:56;;;;;;;13.68;4.50;;;15.80;99.90;;;;;;4977462;28;260486;-76
2022/08/19 00:50:22;;;;;;;16.13;4.40;;;15.80;99.90;;;;;;5023754;28;20050;-77
2022/08/19 00:52:50;;;;;;;10.20;3.95;;;15.70;99.90;;;;;;4960275;28;233256;-78
2022/08/19 00:55:24;;;;;;;9.13;3.95;;;15.70;99.90;;;;;;4971325;28;210940;-77
2022/08/19 00:57:55;;;;;;;8.70;4.00;;;15.60;99.90;;;;;;4974134;28;182358;-77
2022/08/19 01:00:23;;;;;;;11.13;4.43;;;15.60;99.90;;;;;;5011777;28;206642;-77
2022/08/19 01:02:49;;;;;;;12.20;4.13;;;15.60;99.90;;;;;;4957557;28;266468;-80
2022/08/19 01:05:20;;;;;;;9.02;3.95;;;15.60;99.90;;;;;;4977902;28;178991;-77
2022/08/19 01:07:48;;;;;;;8.32;3.92;;;15.50;99.90;;;;;;5006312;28;241994;-79
2022/08/19 01:10:18;;;;;;;9.18;4.38;;;15.50;99.90;;;;;;4970625;28;207546;-77
2022/08/19 01:12:46;;;;;;;8.63;3.88;;;15.50;99.90;;;;;;5022121;28;20049;-77
2022/08/19 01:15:16;;;;;;;8.60;3.78;;;15.40;99.90;;;;;;4956711;28;212148;-77
2022/08/19 01:17:44;;;;;;;8.93;4.30;;;15.40;99.90;;;;;;4971156;28;27322;-77
2022/08/19 01:20:13;;;;;;;9.15;3.83;;;15.40;99.90;;;;;;4978683;28;202302;-77
2022/08/19 01:22:43;;;;;;;9.43;3.70;;;15.40;99.90;;;;;;5027760;28;139994;-77
2022/08/19 01:25:09;;;;;;;9.50;3.83;;;15.30;99.90;;;;;;5000082;28;205977;-77
2022/08/19 01:27:40;;;;;;;12.57;3.80;;;15.30;99.90;;;;;;5009509;28;101320;-77
2022/08/19 01:30:08;;;;;;;10.85;4.53;;;15.30;99.90;;;;;;4982867;28;207086;-78
2022/08/19 01:32:34;;;;;;;9.75;4.13;;;15.30;99.90;;;;;;5006795;28;20061;-77
2022/08/19 01:35:03;;;;;;;10.40;3.90;;;15.20;99.90;;;;;;4953436;28;153800;-77
2022/08/19 01:37:30;;;;;;;10.70;4.25;;;15.20;99.90;;;;;;4986196;28;213930;-77
2022/08/19 01:39:56;;;;;;;12.00;4.30;;;15.20;99.90;;;;;;4952904;28;206367;-76
2022/08/19 01:42:22;;;;;;;10.45;4.30;;;15.10;99.90;;;;;;4990611;28;178363;-77
2022/08/19 01:44:48;;;;;;;9.95;4.90;;;15.10;99.90;;;;;;4943243;28;202708;-77
2022/08/19 01:47:15;;;;;;;10.45;5.60;;;15.10;99.90;;;;;;4997571;28;170585;-77
2022/08/19 01:49:41;;;;;;;9.85;5.55;;;15.10;99.90;;;;;;4958896;28;206478;-77
2022/08/19 01:52:08;;;;;;;10.38;5.80;;;15.10;99.90;;;;;;5015056;28;56614;-77
2022/08/19 01:54:34;;;;;;;11.60;5.38;;;15.10;99.90;;;;;;4955221;28;205985;-77
2022/08/19 01:57:06;;;;;;;13.88;7.15;;;15.10;99.90;;;;;;4991415;28;215074;-77
2022/08/19 01:59:33;;;;;;;12.43;6.13;;;15.10;99.90;;;;;;4964668;28;209253;-77
2022/08/19 02:01:59;;;;;;;13.70;7.15;;;15.10;99.90;;;;;;4984132;28;120149;-76
2022/08/19 02:04:26;;;;;;;15.07;7.22;;;15.10;99.90;;;;;;4960193;28;207814;-76
2022/08/19 02:06:52;;;;;;;15.30;7.32;;;15.10;99.90;;;;;;4989597;28;253181;-77
2022/08/19 02:09:18;;;;;;;11.27;6.20;;;15.10;99.90;;;;;;4952591;28;200016;-77
2022/08/19 02:11:44;;;;;;;12.98;7.03;;;15.10;99.90;;;;;;5004739;28;269185;-77
2022/08/19 02:14:10;;;;;;;15.10;6.95;;;15.10;99.90;;;;;;4991325;28;209629;-78
2022/08/19 02:16:36;;;;;;;12.65;6.70;;;15.10;99.90;;;;;;5004501;28;45581;-77
2022/08/19 02:19:03;;;;;;;10.15;6.18;;;15.20;99.90;;;;;;4971105;28;206114;-77
2022/08/19 02:21:30;;;;;;;14.73;8.05;;;15.10;99.90;;;;;;5000857;28;81328;-77
2022/08/19 02:23:56;;;;;;;12.05;7.05;;;15.10;99.90;;;;;;4975696;28;144361;-76
2022/08/19 02:26:23;;;;;;;13.60;7.25;;;15.10;99.90;;;;;;5025020;28;116153;-76
2022/08/19 02:28:49;;;;;;;13.27;7.60;;;15.10;99.90;;;;;;4974754;28;205450;-76
2022/08/19 02:31:19;;;;;;;16.55;9.48;;;15.10;99.90;;;;;;5008843;28;252615;-77
2022/08/19 02:33:46;;;;;;;14.38;7.68;;;15.10;99.90;;;;;;4970182;28;207128;-77
2022/08/19 02:36:14;;;;;;;14.68;7.38;;;15.00;99.90;;;;;;5023297;28;254505;-77
2022/08/19 02:38:41;;;;;;;15.95;9.23;;;15.00;99.90;;;;;;4963843;28;204786;-77
2022/08/19 02:41:14;;;;;;;13.43;7.73;;;15.00;99.90;;;;;;5020261;28;255185;-77
2022/08/19 02:43:41;;;;;;;13.43;8.73;;;15.00;99.90;;;;;;4970694;28;205960;-77
2022/08/19 02:46:14;;;;;;;16.50;8.97;;;15.00;99.90;;;;;;5008126;28;264481;-76
2022/08/19 02:48:40;;;;;;;13.98;8.27;;;15.00;99.90;;;;;;4979339;28;146571;-75
2022/08/19 02:51:06;;;;;;;15.70;9.90;;;14.90;99.90;;;;;;4998689;28;258002;-76
2022/08/19 02:53:32;;;;;;;16.48;9.48;;;14.90;99.90;;;;;;4970524;28;32964;-77
2022/08/19 02:55:59;;;;;;;17.27;9.65;;;14.90;99.90;;;;;;4990244;28;255881;-77
2022/08/19 02:58:26;;;;;;;14.95;8.90;;;14.90;99.90;;;;;;4958435;28;207556;-77
2022/08/19 03:00:55;;;;;;;14.05;9.07;;;15.00;99.90;;;;;;5010437;28;20053;-77
2022/08/19 03:03:21;;;;;;;14.52;8.32;;;14.90;99.90;;;;;;4921318;28;206042;-77
2022/08/19 03:05:48;;;;;;;13.23;8.18;;;14.90;99.90;;;;;;5000734;28;20049;-77
2022/08/19 03:08:15;;;;;;;13.63;8.95;;;14.90;99.90;;;;;;4967825;28;257771;-77
2022/08/19 03:10:46;;;;;;;14.88;9.15;;;14.90;99.90;;;;;;5025453;28;20045;-76
2022/08/19 03:13:16;;;;;;;;;;;14.90;99.90;;;;;;4955457;28;173122;-76
2022/08/19 03:15:45;;;;;;;15.15;9.13;;;14.90;99.90;;;;;;5023099;28;20496;-77
2022/08/19 03:18:11;;;;;;;18.02;10.88;;;14.90;99.90;;;;;;4963170;28;269955;-77
2022/08/19 03:20:43;;;;;;;17.50;10.48;;;15.00;99.90;;;;;;5029573;28;20069;-78
2022/08/19 03:23:10;;;;;;;15.63;9.95;;;15.00;99.90;;;;;;4955436;28;206743;-77
2022/08/19 03:25:38;;;;;;;17.05;10.07;;;15.00;99.90;;;;;;5010518;28;20053;-76
2022/08/19 03:28:04;;;;;;;17.15;10.18;;;15.00;99.90;;;;;;4930619;28;238427;-76
2022/08/19 03:30:31;;;;;;;14.65;9.65;;;15.00;99.90;;;;;;5028543;28;20049;-77
2022/08/19 03:32:57;;;;;;;16.92;10.18;;;15.00;99.90;;;;;;4954439;28;242214;-77
2022/08/19 03:35:23;;;;;;;16.77;10.18;;;15.00;99.90;;;;;;5043499;28;20053;-76
2022/08/19 03:37:49;;;;;;;14.20;8.93;;;15.00;99.90;;;;;;4962483;28;170399;-76
2022/08/19 03:40:15;;;;;;;15.70;9.30;;;15.00;99.90;;;;;;5011499;28;206388;-77
2022/08/19 03:42:42;;;;;;;16.38;10.25;;;14.90;99.90;;;;;;5001793;28;120829;-77
2022/08/19 03:45:10;;;;;;;15.05;9.63;;;15.00;99.90;;;;;;4985534;28;206231;-77
2022/08/19 03:47:36;;;;;;;15.88;9.98;;;14.90;99.90;;;;;;4990755;28;20060;-77
2022/08/19 03:50:04;;;;;;;16.20;9.48;;;15.00;99.90;;;;;;4999815;28;204504;-76
2022/08/19 03:52:30;;;;;;;14.20;9.57;;;14.90;99.90;;;;;;4980237;28;70477;-76
2022/08/19 03:54:56;;;;;;;16.00;9.77;;;14.90;99.90;;;;;;4971237;28;206045;-76
2022/08/19 03:57:22;;;;;;;16.58;10.23;;;14.90;99.90;;;;;;4991779;28;260303;-77
2022/08/19 03:59:48;;;;;;;16.83;10.25;;;14.90;99.90;;;;;;4954765;28;214195;-77
2022/08/19 04:02:14;;;;;;;14.85;9.45;;;14.90;99.90;;;;;;4972908;28;203523;-76
2022/08/19 04:04:43;;;;;;;16.52;10.05;;;14.90;99.90;;;;;;4956447;28;184684;-77
2022/08/19 04:07:10;;;;;;;16.35;10.15;;;14.90;99.90;;;;;;5003055;28;58048;-77
2022/08/19 04:09:37;;;;;;;17.52;11.27;;;14.90;99.90;;;;;;4980342;28;207743;-77
2022/08/19 04:12:05;;;;;;;19.88;13.23;;;14.90;99.90;;;;;;5007094;28;266791;-77
2022/08/19 04:14:32;;;;;;;18.05;12.30;;;14.90;99.90;;;;;;4990747;28;210435;-77
2022/08/19 04:17:00;;;;;;;19.52;11.50;;;14.90;99.90;;;;;;5002083;28;175477;-77
2022/08/19 04:19:29;;;;;;;15.90;11.20;;;14.90;99.90;;;;;;4967331;28;206297;-77
2022/08/19 04:21:55;;;;;;;17.10;12.07;;;14.90;99.90;;;;;;5012428;28;164607;-76
2022/08/19 04:24:22;;;;;;;18.35;12.27;;;14.90;99.90;;;;;;4951387;28;206015;-77
2022/08/19 04:26:49;;;;;;;18.58;12.38;;;14.90;99.90;;;;;;4993285;28;239721;-76
2022/08/19 04:29:21;;;;;;;17.63;12.35;;;14.90;99.90;;;;;;4960896;28;179192;-77
2022/08/19 04:31:48;;;;;;;20.40;12.85;;;14.90;99.90;;;;;;4995569;28;81748;-78
2022/08/19 04:34:17;;;;;;;18.85;11.65;;;14.80;99.90;;;;;;4945024;28;218238;-76
2022/08/19 04:36:44;;;;;;;18.85;12.82;;;14.80;99.90;;;;;;5006090;28;271580;-77
2022/08/19 04:39:15;;;;;;;17.02;11.90;;;14.80;99.90;;;;;;4964701;28;201577;-77
2022/08/19 04:44:31;;;;;;;17.67;11.60;;;14.80;99.90;;;;;;4972628;28;207293;-77
2022/08/19 04:46:57;;;;;;;15.75;11.15;;;14.80;99.90;;;;;;4995977;28;108983;-77
2022/08/19 04:49:23;;;;;;;17.98;12.38;;;14.80;99.90;;;;;;4999065;28;211020;-78
2022/08/19 04:51:53;;;;;;;17.40;12.00;;;14.80;99.90;;;;;;4995837;28;177850;-77
2022/08/19 04:54:22;;;;;;;18.38;11.75;;;14.80;99.90;;;;;;4995599;28;155274;-78
2022/08/19 04:56:49;;;;;;;19.08;12.10;;;14.80;99.90;;;;;;4988381;28;153189;-77
2022/08/19 04:59:17;;;;;;;19.30;12.27;;;14.80;99.90;;;;;;4959875;28;205417;-77
2022/08/19 05:01:44;;;;;;;16.98;11.80;;;14.80;99.90;;;;;;4991796;28;255821;-76
2022/08/19 05:04:10;;;;;;;18.30;11.85;;;14.80;99.90;;;;;;4935238;28;208356;-77
2022/08/19 05:06:36;;;;;;;19.73;13.05;;;14.80;99.90;;;;;;4991878;28;268578;-77
2022/08/19 05:09:07;;;;;;;17.15;12.02;;;14.90;99.90;;;;;;4968820;28;215958;-77
2022/08/19 05:11:38;;;;;;;21.70;14.63;;;14.90;99.90;;;;;;4985292;28;48242;-77
2022/08/19 05:14:08;;;;;;;19.52;13.25;;;14.90;99.90;;;;;;4969746;28;204082;-76
2022/08/19 05:16:34;;;;;;;23.52;14.18;;;15.00;99.90;;;;;;4994624;28;228641;-76
2022/08/19 05:24:33;;;;;;;21.38;13.23;;;15.00;99.90;;;;;;4949800;28;214725;-75
2022/08/19 05:27:02;;;;;;;20.50;13.77;;;15.10;99.90;;;;;;5001482;28;231001;-76
2022/08/19 05:29:31;;;;;;;21.20;13.27;;;15.20;99.90;;;;;;4978314;28;199496;-76
2022/08/19 05:31:59;;;;;;;20.17;13.40;;;15.20;99.90;;;;;;5001758;28;103868;-76
2022/08/19 05:34:26;;;;;;;21.73;14.82;;;15.30;99.90;;;;;;4972141;28;205239;-76
2022/08/19 05:36:58;;;;;;;22.83;15.18;;;15.30;99.90;;;;;;4990702;28;137299;-76
2022/08/19 05:39:28;;;;;;;19.45;13.98;;;15.40;99.90;;;;;;4951937;28;207458;-75
2022/08/19 05:42:04;;;;;;;20.60;14.10;;;15.50;99.90;;;;;;4993024;28;159317;-76
2022/08/19 05:44:32;;;;;;;21.98;15.48;;;15.50;99.90;;;;;;4961374;28;200821;-76
2022/08/19 05:46:59;;;;;;;21.13;14.82;;;15.60;99.90;;;;;;4993837;28;194274;-77
2022/08/19 05:49:26;;;;;;;19.75;14.38;;;15.60;99.90;;;;;;4966349;28;204604;-76
2022/08/19 05:51:54;;;;;;;20.90;14.48;;;15.70;99.90;;;;;;5001222;28;253115;-76
2022/08/19 05:54:22;;;;;;;24.27;14.38;;;15.70;99.90;;;;;;4954398;28;207557;-76
2022/08/19 05:56:50;;;;;;;21.58;15.43;;;15.80;99.90;;;;;;4995804;28;231442;-77
2022/08/19 05:59:17;;;;;;;22.77;14.15;;;15.90;99.90;;;;;;4952538;28;218402;-76
2022/08/19 06:01:45;;;;;;;19.80;14.23;;;16.00;99.90;;;;;;4976981;28;132809;-76
2022/08/19 06:04:13;;;;;;;21.17;14.80;;;16.00;99.90;;;;;;4954314;28;209616;-76
2022/08/19 06:06:39;;;;;;;22.27;14.50;;;16.20;99.90;;;;;;4999607;28;71965;-76
2022/08/19 06:09:08;;;;;;;22.48;14.65;;;16.30;99.90;;;;;;4959015;28;169968;-76
2022/08/19 06:11:40;;;;;;;20.77;13.55;;;16.40;99.90;;;;;;4975823;28;176317;-76
2022/08/19 06:14:10;;;;;;;19.63;13.85;;;16.50;99.90;;;;;;4964331;28;209485;-76
2022/08/19 06:16:38;;;;;;;19.67;14.30;;;16.60;99.90;;;;;;5008330;28;60246;-77
2022/08/19 06:19:08;;;;;;;19.08;13.02;;;16.70;99.90;;;;;;4955788;28;213519;-77
2022/08/19 06:21:37;;;;;;;19.58;13.32;;;16.80;99.90;;;;;;4993954;28;229023;-77
2022/08/19 06:24:06;;;;;;;16.55;12.57;;;17.00;99.90;;;;;;4946948;28;205777;-77
2022/08/19 06:26:38;;;;;;;19.45;12.60;;;17.40;99.90;;;;;;4987422;28;245832;-77
2022/08/19 06:29:09;;;;;;;16.50;11.43;;;17.80;99.90;;;;;;4971133;28;204807;-77
2022/08/19 06:31:35;;;;;;;;;;;18.20;99.90;;;;;;5010089;28;132379;-77
2022/08/19 06:34:03;;;;;;;15.27;10.70;;;18.50;99.90;;;;;;4943202;28;175751;-78
2022/08/19 06:36:35;;;;;;;16.63;10.55;;;18.80;99.90;;;;;;5001006;28;82073;-77
2022/08/19 06:39:08;;;;;;;16.77;10.20;;;19.10;99.90;;;;;;4982344;28;204650;-77
2022/08/19 06:41:38;;;;;;;15.45;10.25;;;19.40;99.90;;;;;;4996792;28;239157;-78
2022/08/19 06:44:05;;;;;;;14.00;9.63;;;19.70;99.90;;;;;;4993625;28;206358;-78
2022/08/19 06:46:31;;;;;;;15.10;9.77;;;19.90;99.90;;;;;;5033682;28;68352;-78
2022/08/19 06:48:57;;;;;;;16.45;9.80;;;20.10;99.90;;;;;;4986008;28;205596;-77
2022/08/19 06:51:24;;;;;;;13.52;9.65;;;20.30;99.90;;;;;;5018474;28;248402;-77
2022/08/19 06:53:53;;;;;;;16.55;9.60;;;20.50;99.90;;;;;;4962100;28;208898;-78
2022/08/19 06:56:24;;;;;;;13.73;8.85;;;20.70;99.90;;;;;;4994268;28;127820;-78
2022/08/19 06:58:52;;;;;;;13.40;9.05;;;20.90;99.90;;;;;;4951920;28;210108;-76
2022/08/19 07:01:20;;;;;;;14.35;8.90;;;21.00;99.90;;;;;;4978793;28;249966;-76
2022/08/19 07:03:46;;;;;;;13.98;8.98;;;21.20;99.90;;;;;;4970552;28;201132;-78
2022/08/19 07:06:17;;;;;;;14.85;9.32;;;21.40;99.90;;;;;;4979310;28;264024;-77
2022/08/19 07:08:45;;;;;;;;;;;21.50;99.90;;;;;;4951633;28;208902;-77
2022/08/19 07:11:15;;;;;;;14.18;8.95;;;21.60;99.90;;;;;;5016531;28;263792;-77
2022/08/19 07:13:43;;;;;;;;;;;21.60;99.90;;;;;;4936633;28;205187;-76
2022/08/19 07:16:16;;;;;;;13.60;9.30;;;21.70;99.90;;;;;;4982837;28;260979;-80
2022/08/19 07:18:44;;;;;;;14.40;8.95;;;21.80;99.90;;;;;;4971074;28;207202;-77
2022/08/19 07:21:16;;;;;;;14.15;8.85;;;21.90;99.90;;;;;;4965277;28;253909;-78
2022/08/19 07:23:43;;;;;;;14.25;9.00;;;22.10;99.90;;;;;;4958544;28;182933;-77
2022/08/19 07:26:14;;;;;;;12.87;8.67;;;22.30;99.90;;;;;;5001844;28;256341;-78
2022/08/19 07:28:42;;;;;;;13.35;9.10;;;22.50;99.90;;;;;;4991465;28;206334;-78
2022/08/19 07:31:14;;;;;;;14.25;8.85;;;22.60;99.90;;;;;;5005789;28;262436;-77
2022/08/19 07:33:42;;;;;;;14.23;8.57;;;22.80;99.90;;;;;;4959859;28;209115;-77
2022/08/19 07:36:11;;;;;;;12.70;8.60;;;23.00;99.90;;;;;;5021075;28;255011;-77
2022/08/19 07:38:39;;;;;;;13.38;7.97;;;23.10;99.90;;;;;;4960958;28;205250;-77
2022/08/19 07:41:05;;;;;;;11.80;7.53;;;23.40;99.90;;;;;;5014937;28;265719;-78
2022/08/19 07:43:31;;;;;;;14.07;7.90;;;23.60;99.90;;;;;;4975203;28;204584;-78
2022/08/19 07:45:58;;;;;;;13.85;7.68;;;23.70;99.90;;;;;;5007961;28;250856;-78
2022/08/19 07:48:26;;;;;;;15.18;7.43;;;23.90;99.90;;;;;;4963330;28;154725;-78
2022/08/19 07:50:54;;;;;;;12.98;6.88;;;24.20;99.90;;;;;;5008382;28;20049;-78
2022/08/19 07:53:24;;;;;;;12.35;6.78;;;24.30;99.90;;;;;;4966324;28;35429;-77
2022/08/19 07:55:51;;;;;;;11.07;6.60;;;24.40;99.90;;;;;;5006447;28;20069;-78
2022/08/19 07:58:19;;;;;;;9.85;6.40;;;24.30;99.90;;;;;;4929635;28;206602;-77
2022/08/19 08:00:48;;;;;;;12.02;6.63;;;24.40;99.90;;;;;;5004674;28;20533;-78
2022/08/19 08:03:16;;;;;;;12.38;6.30;;;24.40;99.90;;;;;;4956322;28;208499;-77
2022/08/19 08:11:32;;;;;;;10.57;5.45;;;24.80;99.90;;;;;;4974384;28;176315;-78
2022/08/19 08:13:58;;;;;;;10.38;4.97;;;25.10;99.90;;;;;;4935955;28;142983;-78
2022/08/19 08:16:29;;;;;;;10.52;4.80;;;25.30;99.90;;;;;;4965828;28;172408;-77
2022/08/19 08:18:55;;;;;;;11.50;5.10;;;25.50;99.90;;;;;;4947698;28;209815;-77
2022/08/19 08:21:22;;;;;;;12.10;6.15;;;25.70;99.90;;;;;;4974987;28;47474;-77
2022/08/19 08:23:48;;;;;;;13.20;7.15;;;25.90;99.90;;;;;;4927605;28;206262;-77
2022/08/19 08:26:15;;;;;;;12.95;7.15;;;25.90;99.90;;;;;;4973468;28;101501;-78
2022/08/19 08:28:42;;;;;;;13.75;7.95;;;26.10;99.90;;;;;;4941627;28;206166;-78
2022/08/19 08:31:09;;;;;;;11.68;7.93;;;26.10;99.90;;;;;;4966044;28;162067;-79
2022/08/19 08:33:35;;;;;;;11.95;8.00;;;26.30;99.90;;;;;;4946123;28;208219;-77
2022/08/19 08:36:04;;;;;;;10.32;6.28;;;26.50;99.90;;;;;;4993157;28;166796;-78
2022/08/19 08:38:32;;;;;;;11.98;6.28;;;26.70;99.90;;;;;;4947092;28;195585;-78
2022/08/19 08:41:06;;;;;;;10.35;5.57;;;26.70;99.70;;;;;;4997797;28;257619;-78
2022/08/19 08:43:43;;;;;;;12.18;6.35;;;26.90;99.70;;;;;;4986464;28;206519;-78
2022/08/19 08:46:17;;;;;;;10.83;5.93;;;27.00;99.40;;;;;;5011839;28;270315;-78
2022/08/19 08:49:08;;;;;;;12.68;6.47;;;27.10;98.40;;;;;;4955998;28;208939;-78
2022/08/19 08:51:48;;;;;;;9.65;5.72;;;27.10;98.70;;;;;;4999769;28;170475;-77
2022/08/19 08:54:19;;;;;;;11.43;6.15;;;27.20;98.10;;;;;;4984012;28;204016;-77
2022/08/19 08:56:47;;;;;;;11.82;5.68;;;27.50;98.80;;;;;;5014125;28;141065;-79
2022/08/19 08:59:23;;;;;;;10.45;5.22;;;28.00;98.60;;;;;;4965154;28;211836;-78
2022/08/19 09:01:49;;;;;;;9.43;4.90;;;28.30;97.90;;;;;;4987625;28;189849;-79
2022/08/19 09:04:15;;;;;;;9.93;4.88;;;28.60;97.60;;;;;;4960392;28;171179;-80
2022/08/19 09:07:11;;;;;;;10.32;5.18;;;28.60;96.90;;;;;;4993625;28;198525;-80
2022/08/19 09:09:42;;;;;;;11.40;5.20;;;28.70;96.60;;;;;;4967052;28;215052;-80
2022/08/19 09:12:17;;;;;;;9.05;4.70;;;28.80;96.30;;;;;;4996921;28;133151;-81
2022/08/19 09:15:01;;;;;;;9.05;5.00;;;28.70;95.90;;;;;;4976536;28;206492;-77
2022/08/19 09:17:30;;;;;;;12.73;5.45;;;28.90;95.00;;;;;;4996118;28;208552;-79
2022/08/19 09:20:04;;;;;;;11.23;5.82;;;29.10;95.30;;;;;;4968744;28;206836;-79
2022/08/19 09:22:31;;;;;;;15.68;5.60;;;29.30;94.70;;;;;;4991954;28;194537;-79
2022/08/19 09:24:57;;;;;;;10.20;5.45;;;29.60;94.80;;;;;;4980116;28;206682;-79
2022/08/19 09:27:25;;;;;;;9.65;5.55;;;29.80;94.30;;;;;;4996913;28;61996;-79
2022/08/19 09:29:53;;;;;;;9.60;5.97;;;29.80;93.20;;;;;;4982768;28;203463;-79
2022/08/19 09:32:20;;;;;;;10.07;5.57;;;29.70;93.30;;;;;;5010274;28;101827;-79
2022/08/19 09:34:46;;;;;;;10.98;5.97;;;29.70;93.00;;;;;;4976024;28;206056;-79
2022/08/19 09:37:13;;;;;;;9.48;5.25;;;29.40;93.30;;;;;;4994443;28;61842;-79
2022/08/19 09:39:40;;;;;;;10.32;6.15;;;29.40;93.30;;;;;;4985355;28;209032;-79
2022/08/19 09:42:11;;;;;;;9.85;5.63;;;29.70;93.40;;;;;;5009202;28;128870;-79
2022/08/19 09:44:39;;;;;;;10.45;5.60;;;30.00;92.60;;;;;;4987871;28;239801;-79
2022/08/19 09:47:06;;;;;;;9.95;5.75;;;30.20;92.60;;;;;;5003702;28;24238;-80
2022/08/19 09:49:35;;;;;;;9.38;5.32;;;30.40;92.30;;;;;;4977132;28;209860;-80
2022/08/19 09:52:02;;;;;;;9.57;5.78;;;30.70;92.40;;;;;;4987841;28;122798;-80
2022/08/19 09:54:28;;;;;;;10.48;5.85;;;30.80;91.70;;;;;;4972633;28;193590;-79
2022/08/19 09:57:02;;;;;;;10.40;6.03;;;31.00;91.50;;;;;;4995335;28;144187;-78
2022/08/19 09:59:29;;;;;;;9.30;6.22;;;30.90;91.00;;;;;;4965102;28;204642;-80
2022/08/19 10:01:57;;;;;;;10.52;5.93;;;31.00;90.90;;;;;;4978804;28;156056;-79
2022/08/19 10:05:47;;;;;;;9.80;4.93;;;31.40;90.90;;;;;;4971310;28;215114;-79
2022/08/19 10:07:10;;;;;;;9.95;5.50;;;31.60;90.60;;;;;;5010357;28;158680;-79
2022/08/19 10:09:36;;;;;;;11.13;5.60;;;32.00;89.40;;;;;;4998144;28;217946;-79
2022/08/19 10:12:04;;;;;;;10.20;5.60;;;31.90;88.60;;;;;;5019682;28;268595;-80
2022/08/19 10:14:31;;;;;;;10.18;5.65;;;31.80;87.30;;;;;;4954598;28;205356;-80
2022/08/19 10:16:59;;;;;;;13.40;5.32;;;31.70;86.80;;;;;;4981438;28;288211;-77
2022/08/19 10:19:26;;;;;;;10.68;5.78;;;31.50;85.00;;;;;;4970371;28;205764;-80
2022/08/19 10:21:53;;;;;;;12.40;5.80;;;31.10;86.50;;;;;;4997898;28;155630;-79
2022/08/19 10:24:20;;;;;;;10.60;5.78;;;31.20;85.90;;;;;;4962021;28;216997;-79
2022/08/19 10:26:48;;;;;;;11.25;5.90;;;31.00;84.90;;;;;;4990123;28;21886;-79
2022/08/19 10:29:15;;;;;;;8.85;5.15;;;31.00;84.80;;;;;;4983681;28;204808;-79
2022/08/19 10:31:42;;;;;;;9.90;5.80;;;30.80;85.10;;;;;;5023352;28;75486;-80
2022/08/19 10:34:10;;;;;;;8.90;5.20;;;31.10;86.60;;;;;;4953385;28;205373;-79
2022/08/19 10:36:38;;;;;;;10.65;5.70;;;31.50;86.40;;;;;;5003918;28;237595;-80
2022/08/19 10:39:07;;;;;;;10.95;6.13;;;32.00;85.30;;;;;;4968597;28;206787;-80
2022/08/19 10:41:36;;;;;;;10.10;5.40;;;31.90;83.00;;;;;;5009059;28;243057;-80
2022/08/19 10:44:11;;;;;;;11.73;6.40;;;31.70;82.90;;;;;;4979734;28;210522;-81
2022/08/19 10:46:42;;;;;;;9.88;5.68;;;31.50;81.90;;;;;;5013157;28;175284;-80
2022/08/19 10:49:10;;;;;;;9.90;5.57;;;31.60;83.30;;;;;;4948003;28;196033;-79
2022/08/19 10:56:50;;;;;;;10.85;6.20;;;31.30;82.10;;;;;;4967469;28;217751;-81
2022/08/19 10:57:10;;;;;;;10.15;6.43;;;30.90;82.40;;;;;;5011842;28;275141;-79
2022/08/19 10:59:37;;;;;;;12.57;6.15;;;30.70;82.60;;;;;;4947803;28;206036;-79
2022/08/19 11:02:07;;;;;;;12.38;6.97;;;30.40;83.80;;;;;;4996757;28;216412;-79
2022/08/19 11:04:33;;;;;;;10.57;6.38;;;30.40;82.70;;;;;;4977758;28;204659;-80
2022/08/19 11:06:59;;;;;;;12.88;7.97;;;30.50;84.60;;;;;;4991180;28;36045;-80
2022/08/19 11:09:29;;;;;;;10.70;7.57;;;30.60;84.30;;;;;;4969875;28;207804;-79
2022/08/19 11:11:56;;;;;;;11.57;8.20;;;31.00;83.80;;;;;;4986373;28;120246;-80
2022/08/19 11:14:24;;;;;;;10.90;6.85;;;30.80;82.80;;;;;;4978956;28;207609;-79
2022/08/19 11:16:55;;;;;;;10.10;7.13;;;30.60;83.00;;;;;;5015230;28;225109;-80
2022/08/19 11:19:23;;;;;;;13.07;8.25;;;30.50;83.70;;;;;;5012328;28;206462;-80
2022/08/19 11:21:51;;;;;;;10.73;7.95;;;30.40;83.80;;;;;;5016379;28;28736;-80
2022/08/19 11:24:21;;;;;;;13.50;7.60;;;30.40;83.00;;;;;;4982255;28;211072;-79
2022/08/19 11:26:50;;;;;;;10.75;6.85;;;30.10;83.80;;;;;;5006059;28;269935;-80
2022/08/19 11:29:19;;;;;;;11.20;7.80;;;30.50;84.20;;;;;;4988715;28;206029;-80
2022/08/19 11:31:48;;;;;;;10.03;6.77;;;30.80;83.10;;;;;;5004021;28;269396;-80
2022/08/19 11:34:18;;;;;;;11.95;7.97;;;31.10;84.00;;;;;;4955642;28;191519;-79
2022/08/19 11:36:45;;;;;;;11.15;7.88;;;31.60;83.10;;;;;;4997967;28;266501;-80
2022/08/19 11:39:15;;;;;;;11.50;7.40;;;31.80;80.50;;;;;;4984853;28;211218;-80
2022/08/19 11:41:41;;;;;;;11.95;6.72;;;31.60;81.50;;;;;;5023706;28;154609;-80
2022/08/19 11:44:07;;;;;;;11.23;7.03;;;31.70;81.70;;;;;;4949138;28;209594;-80
2022/08/19 11:46:35;;;;;;;12.27;7.10;;;31.80;81.20;;;;;;4996589;28;270495;-81
2022/08/19 11:49:04;;;;;;;10.70;6.50;;;31.70;80.20;;;;;;4973595;28;204376;-80
2022/08/19 11:51:33;;;;;;;11.38;6.53;;;31.20;80.30;;;;;;5009961;28;34500;-80
2022/08/19 11:54:00;;;;;;;11.57;6.35;;;30.90;80.70;;;;;;5004569;28;207519;-82
2022/08/19 11:56:28;;;;;;;11.63;6.60;;;30.80;80.30;;;;;;5018038;28;58670;-81
2022/08/19 11:58:56;;;;;;;9.95;6.18;;;30.60;80.70;;;;;;4958857;28;222781;-79
2022/08/19 12:01:24;;;;;;;12.40;5.80;;;30.30;79.60;;;;;;4981882;28;220206;-80
2022/08/19 12:03:52;;;;;;;10.38;5.07;;;30.20;80.60;;;;;;4981786;28;209611;-80
2022/08/19 12:06:25;;;;;;;10.30;5.65;;;30.20;82.00;;;;;;5001909;28;266114;-80
2022/08/19 12:08:51;;;;;;;10.10;5.57;;;30.30;81.10;;;;;;4979499;28;201928;-80
2022/08/19 12:11:18;;;;;;;10.20;5.10;;;30.10;80.50;;;;;;5001133;28;259588;-80
2022/08/19 12:13:45;;;;;;;10.00;5.20;;;30.00;79.90;;;;;;4965067;28;206979;-79
2022/08/19 12:16:15;;;;;;;8.88;4.28;;;30.00;80.20;;;;;;4997778;28;261198;-79
2022/08/19 12:18:46;;;;;;;9.68;4.70;;;30.10;79.20;;;;;;4963081;28;216291;-80
2022/08/19 12:21:13;;;;;;;7.53;3.05;;;30.20;79.50;;;;;;5018993;28;254874;-80
2022/08/19 12:23:41;;;;;;;8.48;3.47;;;30.70;76.60;;;;;;4976671;28;206265;-81
2022/08/19 12:26:09;;;;;;;9.37;3.10;;;31.20;74.40;;;;;;5016616;28;258636;-80
2022/08/19 12:28:35;;;;;;;7.25;2.90;;;31.80;74.10;;;;;;4951804;28;209670;-78
2022/08/19 12:31:02;;;;;;;7.60;3.13;;;32.50;75.80;;;;;;4972505;28;273779;-79
2022/08/19 12:33:28;;;;;;;10.55;3.40;;;33.10;73.50;;;;;;4958502;28;209020;-80
2022/08/19 12:36:00;;;;;;;8.20;2.90;;;33.50;73.80;;;;;;5024814;28;270996;-79
2022/08/19 12:38:26;;;;;;;11.02;3.08;;;33.90;70.70;;;;;;4949872;28;207556;-80
2022/08/19 12:40:53;;;;;;;8.93;3.08;;;34.20;70.90;;;;;;5019732;28;20057;-80
2022/08/19 12:43:20;;;;;;;8.73;2.95;;;33.90;68.60;;;;;;4947820;28;251731;-78
2022/08/19 12:45:46;;;;;;;7.88;3.13;;;34.00;68.20;;;;;;5041228;28;20057;-81
2022/08/19 12:48:13;;;;;;;7.13;3.00;;;34.20;68.50;;;;;;4965271;28;214886;-80
2022/08/19 12:50:40;;;;;;;8.35;3.30;;;34.20;68.10;;;;;;5024909;28;20056;-80